Time;durP1;ratioP1;P1;durP2;ratioP2;P2;SDS_P1;SDS_P2;PMS_P1;PMS_P2;Temp;Humidity;BMP_temperature;BMP_pressure;BME280_temperature;BME280_humidity;BME280_pressure;Samples;Min_cycle;Max_cycle;Signal;HPM_P1;HPM_P2
2022/01/23 00:00:43;;;;;;;25.40;18.02;;;;;;;;;;5051986;28;20681;-48
2022/01/23 00:03:16;;;;;;;21.05;16.08;;;;;;;;;;5056143;28;20044;-47
2022/01/23 00:05:43;;;;;;;16.33;11.85;;;;;;;;;;5055327;28;20024;-47
2022/01/23 00:08:10;;;;;;;12.88;11.05;;;;;;;;;;5058046;28;20037;-49
2022/01/23 00:10:36;;;;;;;14.30;11.77;;;;;;;;;;5057432;28;20031;-47
2022/01/23 00:13:09;;;;;;;22.10;9.93;;;;;;;;;;5053077;28;20025;-47
2022/01/23 00:18:20;;;;;;;11.68;7.13;;;;;;;;;;5057423;28;20136;-48
2022/01/23 00:20:45;;;;;;;12.10;7.93;;;;;;;;;;5058066;28;20032;-47
2022/01/23 00:23:20;;;;;;;8.20;7.35;;;;;;;;;;5056912;28;20436;-48
2022/01/23 00:31:13;;;;;;;11.68;8.82;;;;;;;;;;5055770;28;20032;-48
2022/01/23 00:33:39;;;;;;;17.20;10.80;;;;;;;;;;5056814;28;20017;-45
2022/01/23 00:36:04;;;;;;;14.00;10.70;;;;;;;;;;5053724;28;20029;-47
2022/01/23 00:38:30;;;;;;;13.50;11.02;;;;;;;;;;5057540;28;20024;-46
2022/01/23 00:40:55;;;;;;;10.38;8.32;;;;;;;;;;5057606;28;20033;-48
2022/01/23 00:43:31;;;;;;;16.27;9.60;;;;;;;;;;5056754;28;20303;-47
2022/01/23 00:48:52;;;;;;;12.00;8.35;;;;;;;;;;5055129;28;20059;-44
2022/01/23 00:51:17;;;;;;;18.23;9.75;;;;;;;;;;5053109;28;20028;-50
2022/01/23 00:53:42;;;;;;;14.50;11.57;;;;;;;;;;5057088;28;20031;-46
2022/01/23 00:56:08;;;;;;;15.27;13.75;;;;;;;;;;5055713;28;20051;-47
2022/01/23 00:58:34;;;;;;;22.23;14.60;;;;;;;;;;5055011;28;20029;-47
2022/01/23 01:00:59;;;;;;;31.90;16.60;;;;;;;;;;5054508;28;20437;-47
2022/01/23 01:03:24;;;;;;;26.27;18.50;;;;;;;;;;5054985;28;20517;-49
2022/01/23 01:05:50;;;;;;;31.92;21.40;;;;;;;;;;5054135;28;20016;-50
2022/01/23 01:08:15;;;;;;;22.17;15.43;;;;;;;;;;5055931;28;20451;-46
2022/01/23 01:10:50;;;;;;;19.15;14.50;;;;;;;;;;5052646;28;20451;-47
2022/01/23 01:13:16;;;;;;;16.67;12.80;;;;;;;;;;5055230;28;20029;-47
2022/01/23 01:31:56;;;;;;;25.90;17.08;;;;;;;;;;5053897;28;20600;-47
2022/01/23 01:34:35;;;;;;;19.63;16.55;;;;;;;;;;5055663;28;20013;-50
2022/01/23 01:37:01;;;;;;;35.70;19.02;;;;;;;;;;5058429;28;20092;-49
2022/01/23 01:39:27;;;;;;;25.17;17.95;;;;;;;;;;5053871;28;20028;-46
2022/01/23 01:41:53;;;;;;;27.55;17.85;;;;;;;;;;5051239;28;20101;-48
2022/01/23 01:44:19;;;;;;;28.85;16.05;;;;;;;;;;5052252;28;20291;-52
2022/01/23 01:46:44;;;;;;;21.52;14.82;;;;;;;;;;5056563;28;20657;-45
2022/01/23 01:49:10;;;;;;;24.27;18.10;;;;;;;;;;5053750;28;20025;-46
2022/01/23 01:51:36;;;;;;;32.83;17.05;;;;;;;;;;5055648;28;20025;-46
2022/01/23 01:54:11;;;;;;;25.83;16.33;;;;;;;;;;5054293;28;20043;-49
2022/01/23 01:59:49;;;;;;;20.33;15.95;;;;;;;;;;5029378;28;20029;-48
2022/01/23 02:10:48;;;;;;;14.02;11.82;;;;;;;;;;5036421;28;20079;-47
2022/01/23 02:13:15;;;;;;;12.00;10.32;;;;;;;;;;5055242;28;20024;-45
2022/01/23 02:16:29;;;;;;;12.48;10.90;;;;;;;;;;5051238;28;20024;-50
2022/01/23 02:54:26;;;;;;;11.40;8.20;;;;;;;;;;5058715;28;20026;-47
2022/01/23 02:56:55;;;;;;;17.02;10.32;;;;;;;;;;5057159;28;20057;-50
2022/01/23 02:59:27;;;;;;;14.73;8.25;;;;;;;;;;5056408;28;20083;-50
2022/01/23 03:04:25;;;;;;;21.60;8.68;;;;;;;;;;5056603;28;20077;-48
2022/01/23 03:28:19;;;;;;;19.00;9.85;;;;;;;;;;5058426;28;20020;-48
2022/01/23 03:31:06;;;;;;;14.27;6.88;;;;;;;;;;5057190;28;20074;-47
2022/01/23 03:33:33;;;;;;;9.13;4.80;;;;;;;;;;5057661;28;20016;-50
2022/01/23 03:35:59;;;;;;;20.08;12.30;;;;;;;;;;5059020;28;20476;-45
2022/01/23 03:38:24;;;;;;;33.03;16.83;;;;;;;;;;5054137;28;20028;-49
2022/01/23 03:40:50;;;;;;;31.65;12.82;;;;;;;;;;5058307;28;20441;-44
2022/01/23 03:43:21;;;;;;;17.88;10.73;;;;;;;;;;5057847;28;20024;-46
2022/01/23 03:51:11;;;;;;;37.50;19.10;;;;;;;;;;5059218;28;20025;-44
2022/01/23 03:53:36;;;;;;;45.88;17.35;;;;;;;;;;5058904;28;20071;-48
2022/01/23 03:56:01;;;;;;;44.75;15.70;;;;;;;;;;5056681;28;20044;-46
2022/01/23 03:58:27;;;;;;;45.33;17.33;;;;;;;;;;5056868;28;20107;-44
2022/01/23 04:00:52;;;;;;;20.05;10.73;;;;;;;;;;5058642;28;20016;-49
2022/01/23 04:03:19;;;;;;;28.15;11.45;;;;;;;;;;5059785;28;20029;-48
2022/01/23 04:05:44;;;;;;;15.88;8.50;;;;;;;;;;5053772;28;20032;-47
2022/01/23 04:08:10;;;;;;;17.17;8.90;;;;;;;;;;5054975;28;20021;-48
2022/01/23 04:10:36;;;;;;;24.88;9.30;;;;;;;;;;5052279;28;20616;-46
2022/01/23 04:13:22;;;;;;;23.25;6.63;;;;;;;;;;5056187;28;20032;-46
2022/01/23 04:16:05;;;;;;;11.52;8.38;;;;;;;;;;5055580;28;20021;-46
2022/01/23 04:34:52;;;;;;;10.43;7.63;;;;;;;;;;5056257;28;20035;-48
2022/01/23 04:45:34;;;;;;;7.65;5.68;;;;;;;;;;5053289;28;20114;-49
2022/01/23 05:04:18;;;;;;;14.65;7.25;;;;;;;;;;5055073;28;20039;-48
2022/01/23 05:06:47;;;;;;;25.63;9.52;;;;;;;;;;5055654;28;20017;-44
2022/01/23 05:09:13;;;;;;;4.57;3.67;;;;;;;;;;5055022;28;20017;-44
2022/01/23 05:11:44;;;;;;;11.18;3.55;;;;;;;;;;5054007;28;20017;-46
2022/01/23 05:14:09;;;;;;;7.35;4.82;;;;;;;;;;5053604;28;20025;-49
2022/01/23 05:16:35;;;;;;;6.45;3.65;;;;;;;;;;5059096;28;20032;-48
2022/01/23 05:19:01;;;;;;;8.10;4.88;;;;;;;;;;5056205;28;20027;-49
2022/01/23 05:23:52;;;;;;;3.92;2.58;;;;;;;;;;5054152;28;20024;-46
2022/01/23 05:26:17;;;;;;;5.32;3.67;;;;;;;;;;5052513;28;20120;-46
2022/01/23 05:28:42;;;;;;;3.38;2.65;;;;;;;;;;5058196;28;20033;-45
2022/01/23 05:31:08;;;;;;;3.67;2.45;;;;;;;;;;5052440;28;20095;-47
2022/01/23 05:33:33;;;;;;;4.97;3.42;;;;;;;;;;5053675;28;20021;-49
2022/01/23 05:35:58;;;;;;;6.88;2.20;;;;;;;;;;5053923;28;20419;-46
2022/01/23 05:38:24;;;;;;;4.38;2.33;;;;;;;;;;5053441;28;20021;-45
2022/01/23 05:40:56;;;;;;;4.85;1.98;;;;;;;;;;5055470;28;20797;-47
2022/01/23 05:43:21;;;;;;;4.57;3.63;;;;;;;;;;5053330;28;20025;-46
2022/01/23 05:45:47;;;;;;;6.28;3.40;;;;;;;;;;5055382;28;20062;-46
2022/01/23 05:48:12;;;;;;;3.75;1.70;;;;;;;;;;5056444;28;20020;-48
2022/01/23 05:50:37;;;;;;;6.88;3.78;;;;;;;;;;5055187;28;20032;-46
2022/01/23 05:53:03;;;;;;;4.88;1.90;;;;;;;;;;5052852;28;20393;-48
2022/01/23 05:55:28;;;;;;;2.30;1.63;;;;;;;;;;5056651;28;20049;-48
2022/01/23 05:57:53;;;;;;;4.32;2.83;;;;;;;;;;5052819;28;20028;-48
2022/01/23 06:00:19;;;;;;;3.80;2.30;;;;;;;;;;5055493;28;20438;-50
2022/01/23 06:02:44;;;;;;;5.28;2.03;;;;;;;;;;5054607;28;20056;-48
2022/01/23 06:05:09;;;;;;;2.60;1.90;;;;;;;;;;5049701;28;20060;-48
2022/01/23 06:07:35;;;;;;;2.33;1.45;;;;;;;;;;5052294;28;20059;-46
2022/01/23 06:10:00;;;;;;;1.85;1.10;;;;;;;;;;5055367;28;20096;-46
2022/01/23 06:12:26;;;;;;;3.00;1.98;;;;;;;;;;5051783;28;20035;-48
2022/01/23 06:14:51;;;;;;;2.45;1.40;;;;;;;;;;5054320;28;20021;-47
2022/01/23 06:17:17;;;;;;;3.08;1.42;;;;;;;;;;5054888;28;20522;-50
2022/01/23 06:19:42;;;;;;;6.28;5.10;;;;;;;;;;5052562;28;20021;-47
2022/01/23 06:22:07;;;;;;;8.18;4.68;;;;;;;;;;5057046;28;20025;-46
2022/01/23 06:24:33;;;;;;;12.93;2.88;;;;;;;;;;5053842;28;20028;-46
2022/01/23 06:27:00;;;;;;;16.25;8.48;;;;;;;;;;5052653;28;20067;-44
2022/01/23 06:29:29;;;;;;;17.35;8.68;;;;;;;;;;5054615;28;20028;-47
2022/01/23 06:31:55;;;;;;;5.65;5.10;;;;;;;;;;5054844;28;20017;-47
2022/01/23 06:34:20;;;;;;;5.72;3.75;;;;;;;;;;5058935;28;20025;-45
2022/01/23 06:36:49;;;;;;;5.18;4.00;;;;;;;;;;5057118;28;20032;-46
2022/01/23 06:39:14;;;;;;;7.05;4.20;;;;;;;;;;5055886;28;20009;-50
2022/01/23 06:41:40;;;;;;;6.30;3.28;;;;;;;;;;5059085;28;20051;-47
2022/01/23 06:44:05;;;;;;;8.63;4.90;;;;;;;;;;5057343;28;20041;-47
2022/01/23 06:46:31;;;;;;;18.10;5.45;;;;;;;;;;5062328;28;20436;-49
2022/01/23 06:48:57;;;;;;;5.43;3.80;;;;;;;;;;5059791;28;20029;-48
2022/01/23 06:51:22;;;;;;;9.38;5.10;;;;;;;;;;5057442;28;20390;-47
2022/01/23 06:53:47;;;;;;;12.18;8.90;;;;;;;;;;5058124;28;20118;-46
2022/01/23 06:56:12;;;;;;;22.13;17.20;;;;;;;;;;5056877;28;20063;-48
2022/01/23 06:58:38;;;;;;;25.40;20.05;;;;;;;;;;5058603;28;20099;-45
2022/01/23 07:01:07;;;;;;;11.43;7.30;;;;;;;;;;5053577;28;20412;-48
2022/01/23 07:03:32;;;;;;;15.65;13.50;;;;;;;;;;5057770;28;20517;-49
2022/01/23 07:05:58;;;;;;;19.30;14.20;;;;;;;;;;5059512;28;20028;-48
2022/01/23 07:08:23;;;;;;;14.75;11.43;;;;;;;;;;5057155;28;20082;-49
2022/01/23 07:10:48;;;;;;;7.88;5.20;;;;;;;;;;5055358;28;20640;-48
2022/01/23 07:13:13;;;;;;;8.95;4.53;;;;;;;;;;5055793;28;20029;-49
2022/01/23 07:15:39;;;;;;;9.57;5.07;;;;;;;;;;5057095;28;20032;-46
2022/01/23 07:18:04;;;;;;;5.22;3.08;;;;;;;;;;5055407;28;20013;-49
2022/01/23 07:20:29;;;;;;;7.25;3.13;;;;;;;;;;5056835;28;20497;-45
2022/01/23 07:22:55;;;;;;;4.75;2.13;;;;;;;;;;5059922;28;20124;-52
2022/01/23 07:25:20;;;;;;;6.25;4.45;;;;;;;;;;5055691;28;20025;-52
2022/01/23 07:27:50;;;;;;;11.52;3.70;;;;;;;;;;5058151;28;20107;-52
2022/01/23 07:30:30;;;;;;;3.10;1.95;;;;;;;;;;5059817;28;20021;-54
2022/01/23 07:32:55;;;;;;;5.90;5.13;;;;;;;;;;5055902;28;20037;-57
2022/01/23 07:35:21;;;;;;;6.30;5.38;;;;;;;;;;5056474;28;20039;-53
2022/01/23 07:37:46;;;;;;;6.43;5.30;;;;;;;;;;5054765;28;20075;-38
2022/01/23 07:40:12;;;;;;;4.47;3.13;;;;;;;;;;5054830;28;20029;-37
2022/01/23 07:42:39;;;;;;;8.43;7.60;;;;;;;;;;5056589;28;20021;-37
2022/01/23 07:45:05;;;;;;;6.97;4.85;;;;;;;;;;5056636;28;20102;-36
2022/01/23 07:47:30;;;;;;;8.00;5.43;;;;;;;;;;5052233;28;20025;-37
2022/01/23 07:49:55;;;;;;;5.90;4.50;;;;;;;;;;5056682;28;20500;-39
2022/01/23 07:52:20;;;;;;;6.93;4.30;;;;;;;;;;5052278;28;20037;-39
2022/01/23 07:54:46;;;;;;;12.18;3.65;;;;;;;;;;5049363;28;20033;-38
2022/01/23 07:57:11;;;;;;;7.40;6.40;;;;;;;;;;5053035;28;20519;-37
2022/01/23 07:59:37;;;;;;;14.80;8.05;;;;;;;;;;5056265;28;20032;-37
2022/01/23 08:02:02;;;;;;;20.92;9.93;;;;;;;;;;5050680;28;20043;-37
2022/01/23 08:04:28;;;;;;;8.68;7.05;;;;;;;;;;5052415;28;20028;-37
2022/01/23 08:07:08;;;;;;;11.15;8.68;;;;;;;;;;5050087;28;20025;-37
2022/01/23 08:09:33;;;;;;;16.58;13.05;;;;;;;;;;5052210;28;20726;-37
2022/01/23 08:11:58;;;;;;;9.73;8.73;;;;;;;;;;5050655;28;20036;-39
2022/01/23 08:14:24;;;;;;;13.50;11.95;;;;;;;;;;5051288;28;20031;-40
2022/01/23 08:16:49;;;;;;;19.38;12.30;;;;;;;;;;5053771;28;20146;-36
2022/01/23 08:19:14;;;;;;;11.48;10.15;;;;;;;;;;5055670;28;20505;-39
2022/01/23 08:21:40;;;;;;;14.07;11.45;;;;;;;;;;5054737;28;20029;-37
2022/01/23 08:24:05;;;;;;;14.15;11.25;;;;;;;;;;5055842;28;20082;-40
2022/01/23 08:26:30;;;;;;;14.90;13.50;;;;;;;;;;5053829;28;20470;-40
2022/01/23 08:28:56;;;;;;;43.40;36.92;;;;;;;;;;5052885;28;20036;-37
2022/01/23 08:31:21;;;;;;;22.75;20.33;;;;;;;;;;5052528;28;20033;-38
2022/01/23 08:33:46;;;;;;;28.52;22.95;;;;;;;;;;5050305;28;20059;-38
2022/01/23 08:36:12;;;;;;;24.33;21.70;;;;;;;;;;5056428;28;20066;-38
2022/01/23 08:38:37;;;;;;;20.80;17.55;;;;;;;;;;5052120;28;20017;-37
2022/01/23 08:43:46;;;;;;;28.38;22.83;;;;;;;;;;5054032;28;20606;-37
2022/01/23 08:46:13;;;;;;;16.75;14.88;;;;;;;;;;5053288;28;20051;-38
2022/01/23 08:48:40;;;;;;;22.30;17.50;;;;;;;;;;5052384;28;20029;-41
2022/01/23 08:51:05;;;;;;;23.85;17.00;;;;;;;;;;5054451;28;20107;-38
2022/01/23 08:53:31;;;;;;;22.50;20.00;;;;;;;;;;5058006;28;20016;-42
2022/01/23 08:55:56;;;;;;;17.80;15.98;;;;;;;;;;5053205;28;20049;-38
2022/01/23 08:58:21;;;;;;;36.13;23.17;;;;;;;;;;5053753;28;20485;-39
2022/01/23 09:00:47;;;;;;;31.33;28.05;;;;;;;;;;5051613;28;20028;-38
2022/01/23 09:03:12;;;;;;;36.53;28.73;;;;;;;;;;5054560;28;20027;-40
2022/01/23 09:05:37;;;;;;;35.08;26.73;;;;;;;;;;5053248;28;20470;-40
2022/01/23 09:08:03;;;;;;;32.42;26.83;;;;;;;;;;5051454;28;20119;-39
2022/01/23 09:10:39;;;;;;;33.45;23.75;;;;;;;;;;5050472;28;20013;-39
2022/01/23 09:13:12;;;;;;;38.55;25.75;;;;;;;;;;5050102;28;20079;-38
2022/01/23 09:15:37;;;;;;;42.42;25.52;;;;;;;;;;5052761;28;20040;-36
2022/01/23 09:18:04;;;;;;;43.00;31.23;;;;;;;;;;5051045;28;20466;-36
2022/01/23 09:20:29;;;;;;;38.65;26.65;;;;;;;;;;5052916;28;20805;-37
2022/01/23 09:22:55;;;;;;;40.33;30.13;;;;;;;;;;5053015;28;20097;-37
2022/01/23 09:25:20;;;;;;;43.80;30.05;;;;;;;;;;5055439;28;20051;-36
2022/01/23 09:27:46;;;;;;;13.48;11.95;;;;;;;;;;5053382;28;20043;-37
2022/01/23 09:30:19;;;;;;;15.93;12.30;;;;;;;;;;5052288;28;20500;-36
2022/01/23 09:32:45;;;;;;;28.20;16.98;;;;;;;;;;5055269;28;20035;-35
2022/01/23 09:35:11;;;;;;;20.38;17.17;;;;;;;;;;5056049;28;20036;-37
2022/01/23 09:37:36;;;;;;;21.92;17.33;;;;;;;;;;5051525;28;20017;-37
2022/01/23 09:40:02;;;;;;;17.73;14.55;;;;;;;;;;5055109;28;20103;-37
2022/01/23 09:42:33;;;;;;;14.32;11.60;;;;;;;;;;5052204;28;20048;-37
2022/01/23 09:45:00;;;;;;;13.23;10.23;;;;;;;;;;5050662;28;20060;-37
2022/01/23 09:47:26;;;;;;;24.88;18.85;;;;;;;;;;5053022;28;20021;-36
2022/01/23 09:49:52;;;;;;;15.05;11.63;;;;;;;;;;5056289;28;20024;-37
2022/01/23 09:52:18;;;;;;;10.35;8.70;;;;;;;;;;5052290;28;20035;-37
2022/01/23 09:54:46;;;;;;;9.60;7.97;;;;;;;;;;5050448;28;20530;-37
2022/01/23 09:57:12;;;;;;;18.02;15.40;;;;;;;;;;5050922;28;20049;-37
2022/01/23 09:59:37;;;;;;;15.43;12.00;;;;;;;;;;5052892;28;20031;-36
2022/01/23 10:02:03;;;;;;;9.73;8.52;;;;;;;;;;5054084;28;20021;-37
2022/01/23 10:04:29;;;;;;;5.63;4.43;;;;;;;;;;5051612;28;20073;-37
2022/01/23 10:06:55;;;;;;;14.15;5.18;;;;;;;;;;5053039;28;20461;-36
2022/01/23 10:09:24;;;;;;;12.02;8.50;;;;;;;;;;5050781;28;20032;-36
2022/01/23 10:11:50;;;;;;;11.27;7.40;;;;;;;;;;5053984;28;20806;-36
2022/01/23 10:14:17;;;;;;;12.23;9.18;;;;;;;;;;5051176;28;20016;-36
2022/01/23 10:16:44;;;;;;;11.68;10.30;;;;;;;;;;5053024;28;20047;-36
2022/01/23 10:19:09;;;;;;;13.20;10.90;;;;;;;;;;5053994;28;20052;-36
2022/01/23 10:21:35;;;;;;;36.63;32.38;;;;;;;;;;5054211;28;20100;-36
2022/01/23 10:24:01;;;;;;;69.28;61.78;;;;;;;;;;5050519;28;20525;-36
2022/01/23 10:26:38;;;;;;;52.60;34.63;;;;;;;;;;5051183;28;20032;-36
2022/01/23 10:29:11;;;;;;;31.10;27.92;;;;;;;;;;5049902;28;20100;-36
2022/01/23 10:31:56;;;;;;;31.58;14.15;;;;;;;;;;5045742;28;20029;-36
2022/01/23 10:34:39;;;;;;;16.17;13.07;;;;;;;;;;5049935;28;20569;-36
2022/01/23 10:37:04;;;;;;;16.92;14.15;;;;;;;;;;5050396;28;20029;-36
2022/01/23 10:39:38;;;;;;;27.60;20.90;;;;;;;;;;5048383;28;20059;-36
2022/01/23 10:42:47;;;;;;;25.38;22.70;;;;;;;;;;5049816;28;20020;-36
2022/01/23 10:48:13;;;;;;;55.38;48.83;;;;;;;;;;5051494;28;20099;-37
2022/01/23 10:50:39;;;;;;;51.63;42.58;;;;;;;;;;5050795;28;20104;-36
2022/01/23 10:53:04;;;;;;;39.55;35.08;;;;;;;;;;5048765;28;20039;-36
2022/01/23 10:55:31;;;;;;;40.72;35.72;;;;;;;;;;5048452;28;20502;-37
2022/01/23 10:57:59;;;;;;;43.33;33.10;;;;;;;;;;5049831;28;20029;-36
2022/01/23 11:00:25;;;;;;;57.47;45.88;;;;;;;;;;5050811;28;20033;-36
2022/01/23 11:02:51;;;;;;;60.78;45.92;;;;;;;;;;5050162;28;20028;-36
2022/01/23 11:05:19;;;;;;;58.30;51.85;;;;;;;;;;5047609;28;20466;-36
2022/01/23 11:07:45;;;;;;;47.42;39.92;;;;;;;;;;5049332;28;20059;-36
2022/01/23 11:10:15;;;;;;;51.67;39.50;;;;;;;;;;5047609;28;20027;-35
2022/01/23 11:17:52;;;;;;;67.15;54.08;;;;;;;;;;5057277;28;20166;-36
2022/01/23 11:20:33;;;;;;;66.90;58.83;;;;;;;;;;5054972;28;20016;-36
2022/01/23 11:23:01;;;;;;;73.57;59.13;;;;;;;;;;5055243;28;20482;-36
2022/01/23 11:25:26;;;;;;;76.50;59.28;;;;;;;;;;5056627;28;20020;-36
2022/01/23 11:28:00;;;;;;;77.20;67.10;;;;;;;;;;5055357;28;20031;-36
2022/01/23 11:30:33;;;;;;;75.13;66.05;;;;;;;;;;5054997;28;20029;-36
2022/01/23 11:32:59;;;;;;;71.22;63.25;;;;;;;;;;5054253;28;20024;-36
2022/01/23 11:35:27;;;;;;;77.30;64.20;;;;;;;;;;5052960;28;20035;-36
2022/01/23 11:37:52;;;;;;;74.18;63.28;;;;;;;;;;5056353;28;20051;-35
2022/01/23 11:53:54;;;;;;;178.98;153.80;;;;;;;;;;5058714;28;20055;-36
2022/01/23 11:56:23;;;;;;;131.13;113.78;;;;;;;;;;5054423;28;20501;-36
2022/01/23 11:58:50;;;;;;;93.70;83.97;;;;;;;;;;5052243;28;20485;-36
2022/01/23 12:01:20;;;;;;;92.88;78.60;;;;;;;;;;5050567;28;20521;-36
2022/01/23 12:04:04;;;;;;;94.53;85.03;;;;;;;;;;5053565;28;20028;-36
2022/01/23 12:06:29;;;;;;;92.85;81.93;;;;;;;;;;5052024;28;20131;-37
2022/01/23 12:09:18;;;;;;;107.63;96.07;;;;;;;;;;5053665;28;20039;-36
2022/01/23 12:12:09;;;;;;;107.05;95.95;;;;;;;;;;5050395;28;20467;-36
2022/01/23 12:17:03;;;;;;;105.50;94.00;;;;;;;;;;5052388;28;20098;-38
2022/01/23 12:19:31;;;;;;;111.70;98.50;;;;;;;;;;5051440;28;20505;-37
2022/01/23 12:21:59;;;;;;;99.47;89.00;;;;;;;;;;5054873;28;20028;-38
2022/01/23 12:24:25;;;;;;;90.55;80.97;;;;;;;;;;5061038;28;20052;-38
2022/01/23 12:26:52;;;;;;;87.82;79.30;;;;;;;;;;5058020;28;20044;-41
2022/01/23 12:29:23;;;;;;;87.03;76.78;;;;;;;;;;5053069;28;20040;-38
2022/01/23 12:31:49;;;;;;;75.03;67.50;;;;;;;;;;5053027;28;20313;-41
2022/01/23 12:34:15;;;;;;;61.63;50.47;;;;;;;;;;5049217;28;20544;-40
2022/01/23 12:36:40;;;;;;;80.03;62.13;;;;;;;;;;5054885;28;20025;-39
2022/01/23 12:39:08;;;;;;;85.95;75.03;;;;;;;;;;5051512;28;20566;-38
2022/01/23 12:41:41;;;;;;;75.95;66.93;;;;;;;;;;5047106;28;20386;-38
2022/01/23 12:44:08;;;;;;;72.43;64.65;;;;;;;;;;5050074;28;20613;-40
2022/01/23 12:46:36;;;;;;;106.88;95.10;;;;;;;;;;5051736;28;20109;-37
2022/01/23 12:49:22;;;;;;;127.88;114.18;;;;;;;;;;5053035;28;20028;-37
2022/01/23 12:51:48;;;;;;;115.38;103.22;;;;;;;;;;5049879;28;20033;-42
2022/01/23 12:54:22;;;;;;;112.85;101.07;;;;;;;;;;5052702;28;20410;-39
2022/01/23 12:56:49;;;;;;;103.93;88.50;;;;;;;;;;5051188;28;20073;-37
2022/01/23 12:59:26;;;;;;;100.70;85.10;;;;;;;;;;5048817;28;20025;-40
2022/01/23 13:01:58;;;;;;;95.32;80.38;;;;;;;;;;5047131;28;20060;-37
2022/01/23 13:04:24;;;;;;;73.20;65.40;;;;;;;;;;5054495;28;20187;-39
2022/01/23 13:07:01;;;;;;;75.65;67.38;;;;;;;;;;5049702;28;20510;-38
2022/01/23 13:09:39;;;;;;;83.07;65.43;;;;;;;;;;5051683;28;20086;-39
2022/01/23 13:14:43;;;;;;;69.75;61.55;;;;;;;;;;5048811;28;20028;-38
2022/01/23 13:17:37;;;;;;;66.57;58.72;;;;;;;;;;5050349;28;20340;-39
2022/01/23 13:30:49;;;;;;;55.15;42.88;;;;;;;;;;5051586;28;20494;-37
2022/01/23 13:33:20;;;;;;;40.50;36.05;;;;;;;;;;5053808;28;20099;-38
2022/01/23 13:35:50;;;;;;;48.55;43.53;;;;;;;;;;5055658;28;20060;-48
2022/01/23 13:38:16;;;;;;;61.00;52.28;;;;;;;;;;5054360;28;20025;-39
2022/01/23 13:40:43;;;;;;;69.90;56.00;;;;;;;;;;5054726;28;20016;-39
2022/01/23 13:59:15;;;;;;;84.63;75.73;;;;;;;;;;5053005;28;20036;-39
2022/01/23 14:04:14;;;;;;;76.57;64.35;;;;;;;;;;5049749;28;20035;-39
2022/01/23 14:06:39;;;;;;;62.92;55.50;;;;;;;;;;5054155;28;20083;-38
2022/01/23 14:09:09;;;;;;;84.85;63.50;;;;;;;;;;5053225;28;20477;-40
2022/01/23 14:11:34;;;;;;;82.82;67.00;;;;;;;;;;5051048;28;20059;-40
2022/01/23 14:14:19;;;;;;;69.53;58.65;;;;;;;;;;5050636;28;20056;-40
2022/01/23 14:16:45;;;;;;;60.20;53.05;;;;;;;;;;5048543;28;20025;-39
2022/01/23 14:19:17;;;;;;;77.68;59.28;;;;;;;;;;5051605;28;20028;-39
2022/01/23 14:21:44;;;;;;;72.30;54.63;;;;;;;;;;5051139;28;20806;-38
2022/01/23 14:24:09;;;;;;;55.25;48.95;;;;;;;;;;5052634;28;20035;-40
2022/01/23 14:26:35;;;;;;;58.65;52.55;;;;;;;;;;5053968;28;20025;-39
2022/01/23 14:29:04;;;;;;;58.90;52.00;;;;;;;;;;5049943;28;20517;-43
2022/01/23 14:31:36;;;;;;;59.67;53.38;;;;;;;;;;5049207;28;20035;-41
2022/01/23 14:34:04;;;;;;;56.85;49.47;;;;;;;;;;5052776;28;20025;-38
2022/01/23 14:36:31;;;;;;;57.67;51.22;;;;;;;;;;5054604;28;20035;-39
2022/01/23 14:38:58;;;;;;;48.88;42.25;;;;;;;;;;5053323;28;20454;-38
2022/01/23 14:41:24;;;;;;;42.20;34.63;;;;;;;;;;5048720;28;20112;-40
2022/01/23 14:43:50;;;;;;;34.67;31.38;;;;;;;;;;5051527;28;20028;-38
2022/01/23 14:46:15;;;;;;;44.70;40.08;;;;;;;;;;5053701;28;20052;-39
2022/01/23 14:48:45;;;;;;;43.40;38.80;;;;;;;;;;5054385;28;20346;-43
2022/01/23 14:51:16;;;;;;;46.95;41.92;;;;;;;;;;5053248;28;20033;-40
2022/01/23 14:53:41;;;;;;;38.38;34.05;;;;;;;;;;5054381;28;20042;-38
2022/01/23 14:56:07;;;;;;;43.17;32.00;;;;;;;;;;5057717;28;20052;-38
2022/01/23 14:58:33;;;;;;;33.22;29.05;;;;;;;;;;5053844;28;20021;-40
2022/01/23 15:00:59;;;;;;;30.73;27.10;;;;;;;;;;5053253;28;20082;-38
2022/01/23 15:03:26;;;;;;;35.00;31.27;;;;;;;;;;5054328;28;20017;-40
2022/01/23 15:05:52;;;;;;;33.53;30.08;;;;;;;;;;5054456;28;20056;-38
2022/01/23 15:08:21;;;;;;;37.75;31.67;;;;;;;;;;5053911;28;20616;-38
2022/01/23 15:10:48;;;;;;;36.42;32.83;;;;;;;;;;5057095;28;20044;-38
2022/01/23 15:13:13;;;;;;;45.03;36.85;;;;;;;;;;5052721;28;20021;-38
2022/01/23 15:15:39;;;;;;;38.47;32.20;;;;;;;;;;5055301;28;20492;-40
2022/01/23 15:18:04;;;;;;;39.67;31.67;;;;;;;;;;5052715;28;20025;-38
2022/01/23 15:20:33;;;;;;;44.50;31.40;;;;;;;;;;5055641;28;20056;-38
2022/01/23 15:22:59;;;;;;;35.78;29.67;;;;;;;;;;5049652;28;20025;-39
2022/01/23 15:25:24;;;;;;;37.53;33.95;;;;;;;;;;5056274;28;20031;-40
2022/01/23 15:27:50;;;;;;;38.53;34.30;;;;;;;;;;5055116;28;20403;-38
2022/01/23 15:30:18;;;;;;;44.95;38.78;;;;;;;;;;5054081;28;20568;-38
2022/01/23 15:32:44;;;;;;;22.10;19.73;;;;;;;;;;5049419;28;20053;-39
2022/01/23 15:35:10;;;;;;;7.63;5.85;;;;;;;;;;5051485;28;20072;-40
2022/01/23 15:37:37;;;;;;;4.78;3.45;;;;;;;;;;5054424;28;20021;-38
2022/01/23 15:40:02;;;;;;;14.35;10.68;;;;;;;;;;5050887;28;20029;-40
2022/01/23 15:42:28;;;;;;;6.30;5.68;;;;;;;;;;5053168;28;20020;-38
2022/01/23 15:44:53;;;;;;;6.07;4.65;;;;;;;;;;5054047;28;20062;-40
2022/01/23 15:47:18;;;;;;;4.63;3.10;;;;;;;;;;5052360;28;20515;-38
2022/01/23 15:49:44;;;;;;;5.15;3.28;;;;;;;;;;5051397;28;20040;-41
2022/01/23 15:52:10;;;;;;;3.63;2.38;;;;;;;;;;5053883;28;20056;-39
2022/01/23 15:54:36;;;;;;;3.58;2.78;;;;;;;;;;5053878;28;20025;-39
2022/01/23 15:57:02;;;;;;;4.55;2.35;;;;;;;;;;5055101;28;20051;-38
2022/01/23 15:59:28;;;;;;;5.95;4.05;;;;;;;;;;5054554;28;20024;-38
2022/01/23 16:01:53;;;;;;;5.68;3.70;;;;;;;;;;5051854;28;20474;-38
2022/01/23 16:04:19;;;;;;;7.15;5.53;;;;;;;;;;5051253;28;20417;-38
2022/01/23 16:06:45;;;;;;;5.07;4.57;;;;;;;;;;5051834;28;20025;-40
2022/01/23 16:09:11;;;;;;;4.93;3.05;;;;;;;;;;5052176;28;20036;-39
2022/01/23 16:11:36;;;;;;;5.25;3.30;;;;;;;;;;5051882;28;20547;-38
2022/01/23 16:14:02;;;;;;;6.70;5.07;;;;;;;;;;5053101;28;20028;-41
2022/01/23 16:16:27;;;;;;;5.05;4.55;;;;;;;;;;5052732;28;20032;-43
2022/01/23 16:18:52;;;;;;;6.25;5.45;;;;;;;;;;5052753;28;20074;-38
2022/01/23 16:21:19;;;;;;;8.75;6.20;;;;;;;;;;5047222;28;20028;-38
2022/01/23 16:23:44;;;;;;;8.70;7.07;;;;;;;;;;5052146;28;20021;-40
2022/01/23 16:26:10;;;;;;;20.05;17.92;;;;;;;;;;5054256;28;20028;-39
2022/01/23 16:28:36;;;;;;;26.45;19.58;;;;;;;;;;5053192;28;20020;-38
2022/01/23 16:31:01;;;;;;;16.40;14.10;;;;;;;;;;5053303;28;20032;-38
2022/01/23 16:33:28;;;;;;;7.90;6.05;;;;;;;;;;5054663;28;20135;-38
2022/01/23 16:35:54;;;;;;;12.73;11.43;;;;;;;;;;5050887;28;20040;-38
2022/01/23 16:38:19;;;;;;;22.17;19.75;;;;;;;;;;5053114;28;20013;-37
2022/01/23 16:40:46;;;;;;;85.78;76.13;;;;;;;;;;5056466;28;20607;-37
2022/01/23 16:43:13;;;;;;;48.13;39.03;;;;;;;;;;5052644;28;20036;-38
2022/01/23 16:45:38;;;;;;;29.73;26.65;;;;;;;;;;5053423;28;20024;-37
2022/01/23 16:48:04;;;;;;;25.33;18.35;;;;;;;;;;5047832;28;20028;-38
2022/01/23 16:50:29;;;;;;;10.43;6.43;;;;;;;;;;5053903;28;20053;-42
2022/01/23 16:52:55;;;;;;;6.15;4.10;;;;;;;;;;5051846;28;20501;-38
2022/01/23 16:55:20;;;;;;;5.93;3.47;;;;;;;;;;5055136;28;20059;-40
2022/01/23 16:57:46;;;;;;;7.95;3.90;;;;;;;;;;5049893;28;20032;-41
2022/01/23 17:00:11;;;;;;;4.40;3.35;;;;;;;;;;5051878;28;20025;-38
2022/01/23 17:02:37;;;;;;;4.88;3.53;;;;;;;;;;5052291;28;20477;-40
2022/01/23 17:05:03;;;;;;;8.80;5.47;;;;;;;;;;5049020;28;20048;-37
2022/01/23 17:07:28;;;;;;;19.70;4.18;;;;;;;;;;5048033;28;20029;-37
2022/01/23 17:09:53;;;;;;;12.27;3.45;;;;;;;;;;5048575;28;20033;-36
2022/01/23 17:12:19;;;;;;;11.10;2.72;;;;;;;;;;5051125;28;20679;-37
2022/01/23 17:14:44;;;;;;;4.88;3.53;;;;;;;;;;5051049;28;20099;-37
2022/01/23 17:17:09;;;;;;;10.02;3.75;;;;;;;;;;5055373;28;20028;-37
2022/01/23 17:19:34;;;;;;;6.80;3.80;;;;;;;;;;5059339;28;20027;-37
2022/01/23 17:22:00;;;;;;;7.00;4.78;;;;;;;;;;5054707;28;20025;-36
2022/01/23 17:24:25;;;;;;;8.70;5.50;;;;;;;;;;5050669;28;20116;-37
2022/01/23 17:26:50;;;;;;;7.55;5.43;;;;;;;;;;5051742;28;20122;-37
2022/01/23 17:29:16;;;;;;;3.15;2.72;;;;;;;;;;5053775;28;20024;-37
2022/01/23 17:31:41;;;;;;;5.40;4.88;;;;;;;;;;5050865;28;20555;-37
2022/01/23 17:34:07;;;;;;;9.82;3.53;;;;;;;;;;5048998;28;20025;-37
2022/01/23 17:36:32;;;;;;;6.25;3.28;;;;;;;;;;5051099;28;20111;-37
2022/01/23 17:38:58;;;;;;;5.95;3.97;;;;;;;;;;5049713;28;20019;-37
2022/01/23 17:41:23;;;;;;;4.93;3.78;;;;;;;;;;5052633;28;20505;-37
2022/01/23 17:43:49;;;;;;;6.35;3.47;;;;;;;;;;5049369;28;20481;-38
2022/01/23 17:46:21;;;;;;;6.63;2.80;;;;;;;;;;5051626;28;20013;-40
2022/01/23 17:49:07;;;;;;;11.02;4.75;;;;;;;;;;5052432;28;20684;-37
2022/01/23 17:51:33;;;;;;;7.82;6.80;;;;;;;;;;5049632;28;20033;-37
2022/01/23 17:53:59;;;;;;;6.53;4.88;;;;;;;;;;5049950;28;20433;-37